Airport details for: LGSO (Greece)

Metar

LGSO 240850Z 35011KT CAVOK 18/08 Q1022

General details

ICAO: LGSO
IATA: JSY
Name (city): Dimitrios Vikelas
Major:
Country: Greece
vACC: Hellenic vACC
Description:

Syros Island National Airport (IATA: JSY, ICAO: LGSO) is an airport serving Syros Island in Greece. It is also known as Syros National Airport "Demetrius Vikelas", named for Demetrius Vikelas (1835–1908), a Greek businessman and writer born in Ermoupoli on the island of Syros.

Syros is part of the Cyclades island group in the Aegean Sea, located 78 nautical miles (144 km) southeast of Athens.

The airport is at an elevation of 236 feet (72 m) above mean sea level. It has one runway designated 18/36 with an asphalt surface measuring 1,080 by 30 metres (3,543 ft × 98 ft).

Scenery links:
FS9 scenery:
FSX/P3D scenery:
XP scenery:
Elevation: 236 ft.
Transition altitude: 7000 ft.
MSA: 3500 ft.
Latitude: 37.423056
Longitude: 24.95
LGSO Charts
LGSO Notams
LGSO Online stations

Runways

Number Course Length Elevation Lat Lon ILS ILS freq ILS FAC GP
18 178° 3543ft / 1080 m 225ft 37.427911 24.950086 - - 3.0°
36 358° 3543ft / 1080 m 236ft 37.418186 24.949786 - - 3.0°